Time;durP1;ratioP1;P1;durP2;ratioP2;P2;SDS_P1;SDS_P2;PMS_P1;PMS_P2;Temp;Humidity;BMP_temperature;BMP_pressure;BME280_temperature;BME280_humidity;BME280_pressure;Samples;Min_cycle;Max_cycle;Signal;HPM_P1;HPM_P2
2022/07/20 00:00:49;;;;;;;8.02;4.75;;;27.70;27.90;;;28.04;25.70;97610.94;4990809;28;20061;-60
2022/07/20 00:03:17;;;;;;;8.63;6.28;;;27.70;27.80;;;28.01;25.52;97608.75;4990553;28;20061;-60
2022/07/20 00:05:48;;;;;;;6.30;5.68;;;27.70;27.90;;;28.00;25.75;97612.59;4990690;28;20069;-60
2022/07/20 00:11:19;;;;;;;5.82;5.28;;;27.70;27.90;;;27.99;25.42;97619.16;4989911;28;20066;-60
2022/07/20 00:11:21;;;;;;;6.43;4.90;;;27.70;27.90;;;27.92;25.80;97613.13;4989403;28;20042;-60
2022/07/20 00:13:59;;;;;;;12.40;5.70;;;27.60;28.20;;;27.83;26.34;97619.13;4989198;28;20352;-60
2022/07/20 00:16:30;;;;;;;6.85;5.32;;;27.50;28.80;;;27.68;26.44;97627.31;4990732;28;20076;-60
2022/07/20 00:18:58;;;;;;;9.13;6.47;;;27.20;29.10;;;27.55;26.59;97631.44;4990403;28;20050;-60
2022/07/20 00:21:26;;;;;;;7.32;5.57;;;27.00;29.20;;;27.45;26.61;97628.66;4990515;28;20050;-60
2022/07/20 00:23:54;;;;;;;8.20;5.10;;;26.90;29.10;;;27.33;27.15;97623.44;4990375;28;20061;-60
2022/07/20 00:26:22;;;;;;;8.48;6.25;;;26.80;29.30;;;27.22;26.87;97617.13;4990221;28;20057;-60
2022/07/20 00:28:50;;;;;;;6.10;5.50;;;26.60;29.50;;;27.13;27.48;97621.47;4989484;28;20049;-60
2022/07/20 00:31:20;;;;;;;7.30;5.32;;;26.60;29.80;;;27.06;27.24;97618.16;4988428;28;20107;-60
2022/07/20 00:33:49;;;;;;;8.38;5.90;;;26.50;29.90;;;26.97;27.82;97614.28;4990065;28;20054;-60
2022/07/20 00:36:18;;;;;;;15.45;6.75;;;26.50;30.00;;;26.90;27.99;97615.38;4990898;28;20340;-60
2022/07/20 00:38:46;;;;;;;7.15;5.57;;;26.40;30.00;;;26.86;27.65;97610.72;4989717;28;20271;-60
2022/07/20 00:41:15;;;;;;;9.10;5.40;;;26.30;30.10;;;26.78;28.22;97616.72;5021048;28;20054;-60
2022/07/20 00:44:07;;;;;;;8.63;5.43;;;26.30;30.50;;;26.68;28.13;97620.22;4990611;28;20050;-60
2022/07/20 00:46:42;;;;;;;9.45;5.07;;;26.20;31.50;;;26.63;28.68;97614.72;4990151;28;20068;-60
2022/07/20 00:49:12;;;;;;;7.32;5.78;;;26.10;31.20;;;26.60;28.19;97620.69;4988906;28;20060;-60
2022/07/20 00:51:43;;;;;;;9.43;5.80;;;26.10;31.10;;;26.53;28.49;97620.91;4989784;28;20056;-60
2022/07/20 00:54:11;;;;;;;7.90;5.38;;;26.00;31.50;;;26.47;28.57;97621.97;4990305;28;20050;-61
2022/07/20 00:56:39;;;;;;;8.73;5.53;;;25.90;31.20;;;26.43;28.71;97623.59;4990026;28;20376;-60
2022/07/20 00:59:10;;;;;;;8.90;5.80;;;25.90;31.20;;;26.38;28.88;97626.28;4989210;28;20052;-60
2022/07/20 01:01:39;;;;;;;8.40;6.05;;;25.80;31.50;;;26.35;29.09;97619.47;4989904;28;20048;-60
2022/07/20 01:04:07;;;;;;;8.35;5.70;;;25.80;31.50;;;26.31;29.35;97615.63;5021043;28;20256;-60
2022/07/20 01:06:36;;;;;;;8.32;4.75;;;25.80;31.50;;;26.25;28.96;97616.66;4987044;28;20057;-60
2022/07/20 01:09:04;;;;;;;7.55;5.57;;;25.80;31.60;;;26.20;29.07;97620.19;4986766;28;20089;-61
2022/07/20 01:11:34;;;;;;;8.48;5.75;;;25.80;31.50;;;26.18;29.14;97616.91;4989700;28;20348;-61
2022/07/20 01:14:07;;;;;;;9.10;6.43;;;25.70;32.50;;;26.12;29.10;97618.75;4990489;28;20062;-61
2022/07/20 01:16:36;;;;;;;8.35;6.13;;;25.70;32.10;;;26.13;29.17;97620.41;4989050;28;20054;-61
2022/07/20 01:19:06;;;;;;;8.77;6.75;;;25.70;31.40;;;26.17;29.17;97611.69;4989115;28;20073;-60
2022/07/20 01:21:40;;;;;;;9.23;6.20;;;25.80;31.00;;;26.22;28.57;97609.00;4989910;28;20248;-60
2022/07/20 01:24:11;;;;;;;11.05;6.43;;;25.90;30.70;;;26.22;28.83;97607.09;4988742;28;20050;-60
2022/07/20 01:26:45;;;;;;;6.72;6.03;;;25.90;30.80;;;26.22;28.96;97604.38;4988260;28;20236;-60
2022/07/20 01:29:13;;;;;;;7.93;5.90;;;25.90;31.00;;;26.19;28.69;97604.91;4988755;28;20045;-60
2022/07/20 01:31:42;;;;;;;7.55;5.65;;;25.80;31.00;;;26.17;29.08;97609.78;4988621;28;20065;-60
2022/07/20 01:34:10;;;;;;;10.18;5.97;;;25.80;31.20;;;26.12;29.24;97613.31;4989072;28;20057;-61
2022/07/20 01:36:37;;;;;;;9.73;6.15;;;25.70;31.40;;;26.08;29.39;97604.00;4989460;28;20364;-60
2022/07/20 01:39:05;;;;;;;8.55;6.25;;;25.60;31.70;;;26.02;29.66;97607.78;4988758;28;20054;-61
2022/07/20 01:41:33;;;;;;;8.07;5.97;;;25.60;31.90;;;25.99;29.38;97613.75;4988419;28;20056;-60
2022/07/20 01:44:01;;;;;;;9.25;6.15;;;25.60;32.00;;;25.95;29.53;97606.38;4989057;28;20058;-60
2022/07/20 01:46:29;;;;;;;6.65;5.80;;;25.50;32.10;;;25.96;29.60;97602.53;4989520;28;20323;-60
2022/07/20 01:48:57;;;;;;;7.53;6.10;;;25.50;31.90;;;25.93;29.16;97599.25;4987701;28;20056;-60
2022/07/20 01:51:25;;;;;;;6.05;5.32;;;25.60;31.60;;;25.93;29.43;97593.00;4989647;28;20605;-61
2022/07/20 01:53:53;;;;;;;10.43;5.95;;;25.70;31.40;;;25.95;29.44;97593.53;4989089;28;20043;-60
2022/07/20 01:56:21;;;;;;;8.40;6.43;;;25.70;31.20;;;25.98;29.29;97597.66;4988042;28;20240;-61
2022/07/20 01:58:48;;;;;;;11.02;5.57;;;25.80;31.10;;;26.03;29.34;97600.41;4987556;28;20060;-60
2022/07/20 02:01:17;;;;;;;10.32;6.22;;;25.80;31.30;;;26.02;29.25;97604.25;4988527;28;20469;-60
2022/07/20 02:03:46;;;;;;;8.93;6.82;;;25.80;31.10;;;26.03;29.28;97608.59;4988177;28;20050;-60
2022/07/20 02:06:14;;;;;;;7.00;5.75;;;25.80;31.10;;;26.04;29.46;97605.63;4989092;28;20054;-60
2022/07/20 02:08:42;;;;;;;7.55;5.78;;;25.80;31.20;;;26.05;29.37;97607.25;4987422;28;20061;-60
2022/07/20 02:11:10;;;;;;;7.97;6.28;;;25.80;31.30;;;26.02;29.47;97602.34;4988431;28;20353;-60
2022/07/20 02:13:39;;;;;;;8.35;6.15;;;25.80;31.50;;;26.04;29.46;97611.06;4987723;28;20064;-60
2022/07/20 02:16:24;;;;;;;11.98;5.72;;;25.80;31.40;;;26.06;29.93;97608.09;4988538;28;20054;-60
2022/07/20 02:18:55;;;;;;;9.25;6.38;;;25.70;31.60;;;26.05;29.66;97604.53;4987403;28;20077;-60
2022/07/20 02:21:24;;;;;;;6.93;5.68;;;25.80;31.90;;;26.03;29.73;97611.34;4987846;28;20264;-61
2022/07/20 02:23:52;;;;;;;7.97;6.35;;;25.70;32.00;;;25.98;30.11;97603.94;4987968;28;20336;-61
2022/07/20 02:26:20;;;;;;;6.70;6.00;;;25.60;32.40;;;25.91;29.81;97608.78;4987161;28;20054;-61
2022/07/20 02:28:48;;;;;;;7.57;5.72;;;25.50;32.40;;;25.86;30.04;97614.16;4987844;28;20050;-61
2022/07/20 02:31:18;;;;;;;8.48;5.90;;;25.40;32.50;;;25.77;30.18;97607.56;4987940;28;20374;-61
2022/07/20 02:33:47;;;;;;;8.30;5.50;;;25.30;32.80;;;25.68;30.35;97610.75;4986105;28;20042;-61
2022/07/20 02:36:15;;;;;;;11.50;7.20;;;25.30;33.10;;;25.61;30.38;97610.16;4987961;28;20209;-60
2022/07/20 02:38:44;;;;;;;7.40;5.88;;;25.20;33.30;;;25.56;30.51;97601.13;4988286;28;20321;-61
2022/07/20 02:41:12;;;;;;;8.88;6.07;;;25.10;33.40;;;25.52;30.73;97606.25;4987965;28;20054;-61
2022/07/20 02:43:40;;;;;;;7.80;5.97;;;25.10;33.60;;;25.45;30.92;97609.19;4987855;28;20058;-60
2022/07/20 02:46:07;;;;;;;8.73;5.82;;;25.00;33.70;;;25.43;30.81;97608.63;4988632;28;20216;-61
2022/07/20 02:48:35;;;;;;;7.13;6.43;;;25.00;33.70;;;25.40;30.76;97609.16;4987585;28;20238;-60
2022/07/20 02:51:03;;;;;;;7.40;5.93;;;25.00;33.90;;;25.39;31.06;97609.41;4987670;28;20236;-60
2022/07/20 02:53:31;;;;;;;8.57;6.03;;;25.00;33.80;;;25.39;30.98;97606.69;4987606;28;20050;-60
2022/07/20 02:55:59;;;;;;;9.43;5.72;;;25.10;33.70;;;25.42;30.96;97606.16;4986998;28;20372;-60
2022/07/20 02:58:27;;;;;;;8.98;5.50;;;25.10;33.70;;;25.43;31.09;97605.06;4987354;28;20054;-61
2022/07/20 03:00:56;;;;;;;7.85;6.38;;;25.10;33.60;;;25.41;31.08;97609.97;4987852;28;20061;-60
2022/07/20 03:03:24;;;;;;;8.82;6.07;;;25.00;33.90;;;25.35;31.15;97609.91;4986638;28;20072;-60
2022/07/20 03:05:52;;;;;;;8.30;5.93;;;25.00;34.10;;;25.28;31.21;97603.88;4987213;28;20414;-60
2022/07/20 03:08:20;;;;;;;8.23;5.85;;;24.90;34.30;;;25.24;31.38;97604.63;4987536;28;20052;-60
2022/07/20 03:10:48;;;;;;;8.30;6.95;;;24.80;34.40;;;25.18;31.56;97606.44;4987665;28;20336;-60
2022/07/20 03:13:16;;;;;;;7.85;5.68;;;24.70;34.50;;;25.14;31.58;97605.28;5018794;28;20256;-60
2022/07/20 03:15:44;;;;;;;8.23;6.03;;;24.70;34.60;;;25.10;31.85;97615.06;4987419;28;20050;-60
2022/07/20 03:18:11;;;;;;;10.38;6.95;;;24.70;34.70;;;25.05;31.78;97610.41;4987075;28;20260;-60
2022/07/20 03:20:39;;;;;;;7.13;5.78;;;24.70;34.80;;;25.03;31.98;97615.28;4986491;28;20379;-60
2022/07/20 03:23:07;;;;;;;7.82;5.68;;;24.70;35.00;;;25.01;31.93;97609.25;4987078;28;20058;-60
2022/07/20 03:25:35;;;;;;;6.63;5.95;;;24.70;35.00;;;24.97;32.12;97610.84;4987052;28;20050;-61
2022/07/20 03:28:03;;;;;;;7.28;5.72;;;24.70;35.00;;;24.98;32.02;97612.47;4985704;28;20060;-61
2022/07/20 03:30:31;;;;;;;10.10;5.55;;;24.70;35.00;;;24.96;32.00;97614.63;4987469;28;20452;-60
2022/07/20 03:32:59;;;;;;;5.55;4.95;;;24.70;35.10;;;24.95;32.10;97600.22;4987571;28;20072;-61
2022/07/20 03:35:27;;;;;;;6.72;5.70;;;24.70;35.00;;;24.98;32.09;97604.31;4988750;28;20062;-61
2022/07/20 03:37:56;;;;;;;7.38;5.50;;;24.70;35.00;;;24.98;32.44;97617.13;4986505;28;20202;-61
2022/07/20 03:40:23;;;;;;;8.43;5.20;;;24.60;35.30;;;24.96;32.33;97614.63;4987248;28;20054;-60
2022/07/20 03:42:51;;;;;;;6.85;5.50;;;24.70;35.20;;;24.94;32.43;97612.16;4987254;28;20054;-60
2022/07/20 03:45:19;;;;;;;7.18;6.15;;;24.70;35.40;;;24.90;32.28;97608.31;4987799;28;20421;-60
2022/07/20 03:47:55;;;;;;;6.22;5.38;;;24.50;35.70;;;24.86;32.63;97606.38;4987691;28;20062;-60
2022/07/20 03:50:24;;;;;;;5.93;5.32;;;24.50;36.00;;;24.83;32.63;97609.59;4986198;28;20357;-61
2022/07/20 03:52:52;;;;;;;9.18;6.15;;;24.50;36.00;;;24.79;32.71;97609.25;4987267;28;20062;-61
2022/07/20 03:55:20;;;;;;;9.50;5.85;;;24.40;36.00;;;24.80;32.80;97610.09;4987876;28;20353;-60
2022/07/20 03:57:48;;;;;;;5.72;4.93;;;24.50;36.10;;;24.82;32.90;97603.31;4986679;28;20054;-60
2022/07/20 04:00:17;;;;;;;7.05;5.80;;;24.50;35.90;;;24.85;32.88;97596.53;4987326;28;20064;-61
2022/07/20 04:02:45;;;;;;;12.15;5.72;;;24.60;35.90;;;24.83;33.08;97598.69;4987543;28;20046;-61
2022/07/20 04:05:13;;;;;;;8.75;5.97;;;24.50;36.20;;;24.81;33.19;97607.09;4986894;28;20076;-61
2022/07/20 04:07:42;;;;;;;8.32;5.15;;;24.50;36.50;;;24.76;32.98;97607.88;4985065;28;20471;-61
2022/07/20 04:10:10;;;;;;;6.60;5.68;;;24.40;36.30;;;24.75;33.17;97608.94;4987307;28;20296;-61
2022/07/20 04:12:38;;;;;;;6.75;4.95;;;24.50;36.40;;;24.73;33.18;97605.66;4986859;28;20371;-61
2022/07/20 04:15:07;;;;;;;10.40;6.38;;;24.50;36.40;;;24.71;33.22;97602.38;4987244;28;20060;-61
2022/07/20 04:17:35;;;;;;;7.18;5.38;;;24.50;36.30;;;24.74;33.20;97606.50;4986196;28;20046;-60
2022/07/20 04:20:04;;;;;;;6.43;5.50;;;24.50;36.30;;;24.74;33.44;97609.22;4987208;28;20058;-61
2022/07/20 04:22:32;;;;;;;6.55;5.45;;;24.50;36.60;;;24.69;33.49;97609.16;4987241;28;20050;-60
2022/07/20 04:25:00;;;;;;;5.63;4.75;;;24.40;36.60;;;24.69;33.45;97607.25;4986578;28;20057;-60
2022/07/20 04:27:28;;;;;;;8.10;4.95;;;24.50;36.50;;;24.71;33.57;97615.97;4986802;28;20058;-60
2022/07/20 04:29:56;;;;;;;7.25;5.50;;;24.50;36.50;;;24.73;33.56;97610.28;4986921;28;20341;-61
2022/07/20 04:32:23;;;;;;;7.70;5.43;;;24.60;36.40;;;24.73;33.64;97615.72;4986451;28;20060;-62
2022/07/20 04:34:51;;;;;;;8.27;5.65;;;24.60;36.30;;;24.75;33.64;97619.00;4988417;28;20050;-60
2022/07/20 04:37:21;;;;;;;8.68;6.30;;;24.70;36.20;;;24.76;33.65;97618.78;4989904;28;20058;-60
2022/07/20 04:39:49;;;;;;;7.80;5.85;;;24.70;36.30;;;24.70;33.62;97613.53;4990712;28;20050;-60
2022/07/20 04:42:17;;;;;;;8.98;5.97;;;24.70;36.10;;;24.74;33.64;97620.91;4990896;28;20058;-62
2022/07/20 04:44:45;;;;;;;10.82;6.22;;;24.80;36.00;;;24.70;33.64;97617.06;4990764;28;20054;-61
2022/07/20 04:47:13;;;;;;;8.23;5.63;;;24.80;36.00;;;24.72;33.70;97614.91;4990474;28;20056;-61
2022/07/20 04:49:41;;;;;;;8.25;5.63;;;24.80;36.00;;;24.77;33.18;97619.59;4990904;28;20240;-61
2022/07/20 04:52:08;;;;;;;6.28;5.68;;;24.80;36.10;;;24.83;33.67;97618.56;4988801;28;20244;-63
2022/07/20 04:54:41;;;;;;;6.93;5.97;;;24.80;36.20;;;24.88;33.66;97615.91;4990598;28;20344;-62
2022/07/20 04:57:09;;;;;;;7.07;5.53;;;24.80;36.40;;;24.87;33.78;97611.56;4989885;28;20260;-61
2022/07/20 04:59:37;;;;;;;6.70;5.45;;;24.80;36.50;;;24.84;33.92;97608.53;4990153;28;20062;-63
2022/07/20 05:02:05;;;;;;;8.10;6.15;;;24.80;36.50;;;24.88;33.95;97612.38;4989257;28;20058;-61
2022/07/20 05:04:33;;;;;;;10.32;6.10;;;24.80;36.70;;;24.90;34.02;97610.22;4991041;28;20057;-60
2022/07/20 05:07:01;;;;;;;6.47;5.50;;;24.80;36.80;;;24.92;33.97;97617.03;4989623;28;20054;-63
2022/07/20 05:09:29;;;;;;;7.97;5.40;;;24.80;36.80;;;24.95;33.95;97610.25;4992011;28;20058;-62
2022/07/20 05:11:57;;;;;;;9.15;6.07;;;24.90;36.80;;;24.97;34.11;97605.41;4990519;28;20061;-61
2022/07/20 05:14:28;;;;;;;8.40;5.93;;;24.90;36.80;;;24.98;33.99;97611.66;4990406;28;20049;-61
2022/07/20 05:16:56;;;;;;;8.38;5.55;;;24.90;36.70;;;25.04;33.97;97616.91;4989550;28;20050;-61
2022/07/20 05:19:24;;;;;;;7.50;5.78;;;25.00;36.70;;;25.06;33.92;97617.47;4988810;28;20142;-61
2022/07/20 05:21:52;;;;;;;7.78;5.43;;;25.00;36.90;;;25.09;33.77;97616.16;4989944;28;20052;-62
2022/07/20 05:24:20;;;;;;;7.78;5.65;;;25.00;36.80;;;25.08;33.94;97614.50;4989517;28;20043;-62
2022/07/20 05:26:47;;;;;;;7.97;5.57;;;25.00;36.70;;;25.12;33.88;97618.34;4988169;28;20057;-61
2022/07/20 05:29:15;;;;;;;6.93;5.00;;;25.00;36.70;;;25.12;33.88;97615.63;4989723;28;20241;-62
2022/07/20 05:31:43;;;;;;;5.55;4.72;;;25.00;36.60;;;25.15;33.91;97618.66;4991100;28;20051;-62
2022/07/20 05:34:11;;;;;;;6.93;5.38;;;25.00;36.60;;;25.13;34.05;97626.28;4990829;28;20253;-62
2022/07/20 05:36:39;;;;;;;8.80;5.78;;;25.10;36.60;;;25.13;33.70;97618.09;4989821;28;20050;-62
2022/07/20 05:39:09;;;;;;;7.55;5.38;;;25.10;36.70;;;25.13;33.88;97611.84;4990373;28;20049;-62
2022/07/20 05:41:38;;;;;;;7.03;5.57;;;25.10;36.70;;;25.16;33.99;97619.47;4990587;28;20046;-62
2022/07/20 05:44:06;;;;;;;8.77;5.72;;;25.10;36.90;;;25.19;33.99;97626.34;4991548;28;20052;-62
2022/07/20 05:46:34;;;;;;;7.10;5.80;;;25.00;37.00;;;25.20;33.97;97631.50;4988421;28;20367;-62
2022/07/20 05:49:02;;;;;;;8.32;5.70;;;25.00;36.90;;;25.21;34.04;97635.88;4990518;28;20054;-62
2022/07/20 05:51:30;;;;;;;8.57;5.35;;;25.10;37.00;;;25.21;34.49;97633.16;4990470;28;20060;-62
2022/07/20 05:53:59;;;;;;;6.22;5.43;;;25.20;37.20;;;25.20;34.62;97642.41;4990340;28;20237;-61
2022/07/20 05:56:27;;;;;;;7.65;5.43;;;25.20;37.30;;;25.23;34.67;97646.56;4990510;28;20052;-62
2022/07/20 05:58:58;;;;;;;6.88;4.90;;;25.20;37.50;;;25.24;34.79;97648.19;4989161;28;20361;-61
2022/07/20 06:01:26;;;;;;;7.18;5.40;;;25.20;37.80;;;25.29;34.70;97653.72;4987317;28;20255;-60
2022/07/20 06:03:54;;;;;;;11.23;5.90;;;25.20;37.60;;;25.29;34.84;97654.53;4988068;28;20054;-61
2022/07/20 06:06:22;;;;;;;12.93;5.80;;;25.30;37.80;;;25.34;35.26;97662.78;5001743;28;20046;-61
2022/07/20 06:08:50;;;;;;;8.35;5.50;;;25.30;37.90;;;25.39;35.48;97653.81;5007068;28;20229;-61
2022/07/20 06:11:39;;;;;;;7.40;5.80;;;25.40;38.30;;;25.44;35.72;97658.50;5008063;28;20084;-61
2022/07/20 06:14:06;;;;;;;12.55;6.32;;;25.40;38.50;;;25.46;35.29;97662.63;5007079;28;20350;-61
2022/07/20 06:16:34;;;;;;;6.78;5.50;;;25.50;38.10;;;25.52;35.10;97655.31;5008568;28;20402;-61
2022/07/20 06:19:02;;;;;;;12.43;6.45;;;25.50;37.90;;;25.56;35.38;97651.00;5007745;28;20067;-61
2022/07/20 06:21:30;;;;;;;7.75;6.88;;;25.60;37.90;;;25.62;35.12;97658.13;5011812;28;20359;-61
2022/07/20 06:23:58;;;;;;;9.52;6.82;;;25.60;37.80;;;25.68;34.81;97664.47;5010998;28;20054;-61
2022/07/20 06:26:26;;;;;;;9.90;7.63;;;25.80;37.60;;;25.72;34.98;97671.03;5018340;28;20042;-61
2022/07/20 06:28:54;;;;;;;8.80;6.30;;;25.80;37.50;;;25.80;34.80;97667.81;5010024;28;20045;-61
2022/07/20 06:31:22;;;;;;;13.45;7.18;;;25.80;37.20;;;25.84;34.82;97660.81;5026242;28;20300;-61
2022/07/20 06:34:10;;;;;;;10.93;6.30;;;25.90;37.20;;;25.90;34.90;97657.03;5027557;28;20049;-61
2022/07/20 06:36:39;;;;;;;9.85;6.13;;;26.00;37.50;;;25.96;34.72;97663.38;5026229;28;20064;-60
2022/07/20 06:39:07;;;;;;;8.05;5.90;;;26.10;37.30;;;26.03;34.46;97660.44;5009052;28;20056;-61
2022/07/20 06:41:35;;;;;;;13.82;7.47;;;26.10;37.10;;;26.08;33.94;97660.47;5006637;28;20049;-61
2022/07/20 06:44:10;;;;;;;9.85;6.18;;;26.20;36.70;;;26.15;34.08;97666.50;5004835;28;20037;-61
2022/07/20 06:46:38;;;;;;;14.30;7.60;;;26.20;36.60;;;26.20;34.18;97663.81;5007563;28;20255;-61
2022/07/20 06:49:06;;;;;;;19.95;7.57;;;26.30;36.90;;;26.23;34.56;97663.31;5015327;28;20045;-60
2022/07/20 06:51:34;;;;;;;13.32;7.57;;;26.30;37.00;;;26.29;34.11;97666.91;5016929;28;20048;-60
2022/07/20 06:54:02;;;;;;;10.35;6.65;;;26.40;36.60;;;26.33;34.07;97668.03;5026690;28;20053;-60
2022/07/20 06:56:29;;;;;;;10.15;7.45;;;26.40;36.60;;;26.37;34.21;97669.13;5009081;28;20075;-60
2022/07/20 06:58:57;;;;;;;13.57;7.95;;;26.50;36.60;;;26.42;33.90;97669.16;5006115;28;20057;-60
2022/07/20 07:01:25;;;;;;;9.93;7.07;;;26.50;36.50;;;26.47;34.36;97666.47;5006723;28;20049;-60
2022/07/20 07:03:54;;;;;;;13.65;6.88;;;26.60;36.70;;;26.52;34.12;97663.78;5014696;28;20052;-60
2022/07/20 07:06:27;;;;;;;8.65;6.43;;;26.60;36.60;;;26.58;34.29;97667.38;5027040;28;20053;-60
2022/07/20 07:08:56;;;;;;;9.30;6.88;;;26.70;36.50;;;26.63;34.27;97667.41;5024770;28;20064;-60
2022/07/20 07:11:25;;;;;;;8.57;6.38;;;26.70;36.40;;;26.71;33.87;97669.66;5027258;28;20049;-60
2022/07/20 07:13:53;;;;;;;10.48;7.40;;;26.80;36.20;;;26.78;33.53;97668.59;5027125;28;20076;-60
2022/07/20 07:16:21;;;;;;;10.45;7.05;;;26.90;35.90;;;26.82;33.44;97667.78;5026197;28;20267;-60
2022/07/20 07:18:49;;;;;;;8.10;7.20;;;26.90;35.80;;;26.90;33.48;97675.47;5025469;28;20055;-60
2022/07/20 07:21:18;;;;;;;10.35;6.32;;;27.00;35.90;;;26.98;32.91;97676.03;5014280;28;20069;-61
2022/07/20 07:23:49;;;;;;;8.65;6.70;;;27.10;35.40;;;27.02;32.69;97669.78;5007843;28;20046;-61
2022/07/20 07:26:20;;;;;;;10.90;6.68;;;27.20;34.70;;;27.07;32.23;97661.59;5007131;28;20197;-61
2022/07/20 07:28:47;;;;;;;9.18;6.75;;;27.20;34.40;;;27.11;31.90;97659.97;5007317;28;20068;-61
2022/07/20 07:31:17;;;;;;;7.82;5.70;;;27.20;34.30;;;27.17;31.12;97660.81;5007403;28;20218;-61
2022/07/20 07:33:46;;;;;;;6.82;5.93;;;27.30;33.10;;;27.20;31.34;97662.19;5007179;28;20053;-61
2022/07/20 07:36:15;;;;;;;7.63;5.72;;;27.40;33.00;;;27.25;31.01;97660.31;5006618;28;20042;-61
2022/07/20 07:38:43;;;;;;;9.95;6.32;;;27.50;33.00;;;27.32;31.18;97656.50;5006112;28;20045;-60
2022/07/20 07:41:11;;;;;;;7.28;6.55;;;27.60;33.10;;;27.38;31.23;97669.13;5006314;28;20069;-61
2022/07/20 07:43:39;;;;;;;7.97;6.30;;;27.60;33.10;;;27.44;31.37;97677.06;5005754;28;20405;-60
2022/07/20 07:46:07;;;;;;;8.10;6.85;;;27.70;32.50;;;27.54;30.92;97675.44;5007505;28;20060;-61
2022/07/20 07:48:34;;;;;;;10.88;6.75;;;27.80;32.70;;;27.61;31.54;97670.53;5006614;28;20046;-61
2022/07/20 07:51:03;;;;;;;11.50;7.03;;;27.90;32.80;;;27.64;31.33;97668.06;5006328;28;20052;-61
2022/07/20 07:53:30;;;;;;;7.35;6.05;;;27.90;32.70;;;27.71;31.56;97664.25;5007010;28;20060;-61
2022/07/20 07:55:58;;;;;;;8.27;5.45;;;27.90;33.00;;;27.76;30.84;97665.09;5006316;28;20248;-61
2022/07/20 07:58:26;;;;;;;9.38;6.13;;;27.90;32.70;;;27.81;31.28;97659.59;5006149;28;20052;-61
2022/07/20 08:00:54;;;;;;;10.10;7.18;;;28.10;32.90;;;27.89;30.71;97672.75;5012393;28;20059;-61
2022/07/20 08:03:22;;;;;;;8.93;6.63;;;28.20;32.70;;;27.95;30.75;97670.03;5017139;28;20076;-61
2022/07/20 08:05:54;;;;;;;8.77;5.90;;;28.20;32.40;;;27.99;29.71;97671.94;5014620;28;20049;-61
2022/07/20 08:08:22;;;;;;;9.00;6.25;;;28.30;31.00;;;28.07;29.62;97679.63;5016681;28;20359;-61
2022/07/20 08:10:50;;;;;;;7.80;6.40;;;28.50;31.10;;;28.13;29.36;97674.13;5018334;28;20056;-61
2022/07/20 08:13:17;;;;;;;12.15;7.38;;;28.50;30.10;;;28.20;28.80;97680.16;5018984;28;20252;-61
2022/07/20 08:15:45;;;;;;;8.05;6.28;;;28.60;30.20;;;28.27;28.81;97677.97;5018660;28;20049;-61
2022/07/20 08:18:18;;;;;;;;;;;28.70;30.00;;;28.27;28.80;97669.75;5020152;28;20062;-61
2022/07/20 08:20:46;;;;;;;11.68;6.03;;;28.60;29.70;;;28.33;28.87;97668.66;5016538;28;19925;-61
2022/07/20 08:23:14;;;;;;;9.05;6.75;;;28.60;30.00;;;28.36;28.84;97679.03;5009422;28;20050;-61
2022/07/20 08:25:42;;;;;;;10.25;6.30;;;28.70;30.20;;;28.41;29.05;97670.00;5010720;28;20050;-60
2022/07/20 08:28:21;;;;;;;10.43;6.65;;;28.60;30.40;;;28.44;29.19;97670.28;5010552;28;20053;-61
2022/07/20 08:30:51;;;;;;;8.70;6.75;;;28.70;30.40;;;28.43;28.87;97674.09;5009640;28;20554;-61
2022/07/20 08:33:22;;;;;;;10.23;5.60;;;28.70;29.80;;;28.51;28.99;97675.50;5009719;28;20058;-61
2022/07/20 08:35:50;;;;;;;11.02;6.18;;;28.80;30.00;;;28.55;28.84;97675.75;5007880;28;20061;-62
2022/07/20 08:38:44;;;;;;;7.82;5.97;;;28.80;30.30;;;28.58;29.42;97677.97;5009047;28;20244;-62
2022/07/20 08:41:14;;;;;;;6.80;6.18;;;28.90;30.30;;;28.68;28.89;97686.16;5009614;28;20056;-61
2022/07/20 08:43:42;;;;;;;10.85;7.10;;;28.90;30.10;;;28.70;28.99;97686.69;5008203;28;20260;-62
2022/07/20 08:46:12;;;;;;;10.93;7.63;;;29.10;30.10;;;28.79;28.48;97686.91;5007779;28;20068;-62
2022/07/20 08:48:42;;;;;;;10.63;6.45;;;29.20;29.90;;;28.91;28.74;97687.44;5009366;28;20271;-62
2022/07/20 08:51:10;;;;;;;8.10;6.65;;;29.40;29.60;;;28.99;28.88;97695.09;5009084;28;20719;-62
2022/07/20 08:53:38;;;;;;;7.70;6.40;;;29.50;29.90;;;29.10;28.74;97695.88;5008635;28;20042;-62
2022/07/20 08:56:11;;;;;;;9.53;6.63;;;29.50;30.00;;;29.16;28.52;97692.03;5010703;28;20265;-61
2022/07/20 08:58:41;;;;;;;9.52;6.85;;;29.60;30.00;;;29.18;28.52;97698.06;5007948;28;20285;-62
2022/07/20 09:01:18;;;;;;;10.10;6.47;;;29.60;29.70;;;29.29;28.49;97698.00;5008732;28;20241;-61
2022/07/20 09:04:12;;;;;;;11.40;7.50;;;29.70;29.80;;;29.36;28.76;97704.81;5008088;28;20225;-61
2022/07/20 09:06:50;;;;;;;9.93;6.60;;;29.80;29.90;;;29.42;28.61;97700.94;5008838;28;20069;-62
2022/07/20 09:09:19;;;;;;;10.77;6.50;;;29.90;30.00;;;29.47;28.67;97707.50;5008576;28;20057;-61
2022/07/20 09:11:49;;;;;;;8.95;6.55;;;30.00;30.00;;;29.58;28.59;97695.38;5007638;28;20058;-62
2022/07/20 09:14:55;;;;;;;15.95;6.78;;;30.00;30.00;;;29.64;28.26;97705.22;5008254;28;20049;-62
2022/07/20 09:17:25;;;;;;;11.98;6.63;;;30.20;29.70;;;29.64;28.31;97703.31;4986006;28;20571;-61
2022/07/20 09:20:07;;;;;;;8.30;6.63;;;30.10;29.80;;;29.73;28.49;97705.47;4986519;28;20054;-62
2022/07/20 09:22:37;;;;;;;13.77;8.38;;;30.10;30.00;;;29.73;28.41;97703.53;5022640;28;20058;-61
2022/07/20 09:25:09;;;;;;;11.25;6.90;;;30.20;29.70;;;29.77;28.70;97712.03;5009197;28;20041;-61
2022/07/20 09:27:37;;;;;;;7.28;5.85;;;30.20;30.00;;;29.83;28.40;97708.13;5008732;28;20052;-61
2022/07/20 09:30:15;;;;;;;7.80;6.43;;;30.30;29.80;;;29.92;28.21;97711.94;5008450;28;20271;-61
2022/07/20 09:32:58;;;;;;;8.02;6.38;;;30.40;29.60;;;29.99;28.20;97701.47;5008184;28;20136;-61
2022/07/20 09:35:35;;;;;;;7.85;6.28;;;30.50;29.60;;;30.04;27.88;97703.31;5009143;28;20261;-61
2022/07/20 09:38:06;;;;;;;7.47;6.70;;;30.50;29.40;;;30.13;27.98;97704.34;5007259;28;20268;-61
2022/07/20 09:40:45;;;;;;;9.77;6.22;;;30.60;29.40;;;30.16;28.03;97698.28;5008815;28;20041;-61
2022/07/20 09:43:33;;;;;;;7.25;6.47;;;30.70;29.40;;;30.22;28.30;97699.06;5007494;28;20244;-61
2022/07/20 09:46:18;;;;;;;10.52;6.10;;;30.80;29.50;;;30.27;27.99;97695.47;5008618;28;20060;-56
2022/07/20 09:48:55;;;;;;;7.70;6.90;;;30.80;29.20;;;30.25;28.21;97700.44;5009104;28;20062;-61
2022/07/20 09:51:34;;;;;;;7.95;7.13;;;30.80;29.60;;;30.35;28.14;97690.19;5008501;28;20060;-60
2022/07/20 09:54:09;;;;;;;6.57;5.93;;;30.80;29.60;;;30.31;28.18;97685.53;5007202;28;20320;-61
2022/07/20 09:56:43;;;;;;;7.60;6.80;;;30.80;29.60;;;30.40;28.46;97687.41;5007977;28;20046;-61
2022/07/20 09:59:13;;;;;;;10.52;6.35;;;30.90;29.60;;;30.50;28.52;97685.69;5008900;28;20061;-61
2022/07/20 10:01:46;;;;;;;6.70;5.80;;;30.90;29.80;;;30.55;28.42;97683.66;5008174;28;20481;-59
2022/07/20 10:04:14;;;;;;;;;;;30.90;29.60;;;30.53;27.88;97683.13;5009968;28;20045;-61
2022/07/20 10:06:46;;;;;;;8.57;6.68;;;31.00;29.60;;;30.61;27.29;97682.53;5007663;28;19925;-60
2022/07/20 10:09:15;;;;;;;6.80;6.15;;;31.10;29.10;;;30.70;27.45;97679.13;5005900;28;20080;-62
2022/07/20 10:11:44;;;;;;;7.75;6.38;;;31.20;29.00;;;30.76;27.44;97675.22;5007488;28;20046;-62
2022/07/20 10:14:15;;;;;;;7.55;6.22;;;31.20;29.30;;;30.74;27.69;97691.19;5007508;28;20072;-62
2022/07/20 10:16:48;;;;;;;9.65;6.97;;;31.20;29.10;;;30.83;27.06;97683.94;5006944;28;20049;-61
2022/07/20 10:19:16;;;;;;;8.32;7.40;;;31.40;28.90;;;30.87;27.66;97681.44;5008441;28;20328;-61
2022/07/20 10:21:48;;;;;;;32.00;24.25;;;31.40;29.30;;;30.94;27.81;97690.16;5007500;28;20050;-61
2022/07/20 10:24:38;;;;;;;12.43;9.52;;;31.40;29.50;;;30.92;28.27;97684.13;5008324;28;20061;-61
2022/07/20 10:27:06;;;;;;;8.95;8.10;;;31.50;29.80;;;30.94;28.67;97687.41;5006596;28;20240;-60
2022/07/20 10:29:43;;;;;;;9.82;8.55;;;31.40;30.00;;;31.02;28.42;97681.28;5008007;28;20065;-60